createdAt,value
2023-04-22T00:02:06.644Z,11.47
2023-04-22T00:05:31.913Z,11.47
2023-04-22T00:08:57.112Z,11.46
2023-04-22T00:12:22.356Z,11.47
2023-04-22T00:15:47.658Z,11.49
2023-04-22T00:19:12.775Z,11.5
2023-04-22T00:22:38.024Z,11.46
2023-04-22T00:26:03.255Z,11.44
2023-04-22T00:29:28.504Z,11.4
2023-04-22T00:32:53.722Z,11.35
2023-04-22T00:36:18.968Z,11.29
2023-04-22T00:39:44.194Z,11.24
2023-04-22T00:43:09.423Z,11.17
2023-04-22T00:46:34.701Z,11.13
2023-04-22T00:49:59.922Z,11.08
2023-04-22T00:53:25.161Z,11.03
2023-04-22T00:56:50.397Z,10.96
2023-04-22T01:00:15.615Z,10.92
2023-04-22T01:03:41.072Z,10.91
2023-04-22T01:07:06.098Z,10.88
2023-04-22T01:10:31.360Z,10.85
2023-04-22T01:13:56.578Z,10.85
2023-04-22T01:17:21.818Z,10.83
2023-04-22T01:20:47.079Z,10.79
2023-04-22T01:24:12.287Z,10.77
2023-04-22T01:27:37.514Z,10.74
2023-04-22T01:31:02.748Z,10.63
2023-04-22T01:34:27.973Z,10.47
2023-04-22T01:37:53.221Z,10.4
2023-04-22T01:41:18.415Z,10.37
2023-04-22T01:44:43.689Z,10.31
2023-04-22T01:48:08.937Z,10.26
2023-04-22T01:51:34.090Z,10.23
2023-04-22T01:54:59.329Z,10.2
2023-04-22T01:58:24.534Z,10.17
2023-04-22T02:01:49.799Z,10.14
2023-04-22T02:05:15.074Z,10.13
2023-04-22T02:08:40.237Z,10.14
2023-04-22T02:12:05.512Z,10.15
2023-04-22T02:15:30.701Z,10.18
2023-04-22T02:18:55.927Z,10.14
2023-04-22T02:22:21.155Z,10.13
2023-04-22T02:25:46.406Z,10.1
2023-04-22T02:29:11.675Z,10.14
2023-04-22T02:32:36.928Z,10.18
2023-04-22T02:36:02.071Z,10.2
2023-04-22T02:39:27.278Z,10.25
2023-04-22T02:42:52.490Z,10.3
2023-04-22T02:46:17.760Z,10.34
2023-04-22T02:49:42.996Z,10.37
2023-04-22T02:53:08.126Z,10.43
2023-04-22T02:56:33.334Z,10.49
2023-04-22T02:59:58.555Z,10.63
2023-04-22T03:03:24.043Z,10.69
2023-04-22T03:06:48.987Z,10.74
2023-04-22T03:10:14.244Z,10.73
2023-04-22T03:13:39.479Z,10.75
2023-04-22T03:17:04.702Z,10.73
2023-04-22T03:20:29.949Z,10.67
2023-04-22T03:23:55.143Z,10.61
2023-04-22T03:27:20.354Z,10.57
2023-04-22T03:30:45.590Z,10.57
2023-04-22T03:34:10.848Z,10.57
2023-04-22T03:37:36.106Z,10.55
2023-04-22T03:41:01.304Z,10.55
2023-04-22T03:44:26.510Z,10.56
2023-04-22T03:47:51.821Z,10.58
2023-04-22T03:51:16.977Z,10.65
2023-04-22T03:54:42.208Z,10.67
2023-04-22T03:58:07.421Z,10.71
2023-04-22T04:01:32.654Z,10.77
2023-04-22T04:04:58.031Z,10.78
2023-04-22T04:08:23.078Z,10.77
2023-04-22T04:11:48.348Z,10.75
2023-04-22T04:15:13.543Z,10.73
2023-04-22T04:18:38.783Z,10.7
2023-04-22T04:22:03.986Z,10.7
2023-04-22T04:25:29.214Z,10.73
2023-04-22T04:28:54.446Z,10.82
2023-04-22T04:32:19.790Z,10.9
2023-04-22T04:35:44.893Z,10.96
2023-04-22T04:39:10.322Z,11.05
2023-04-22T04:42:35.588Z,11.12
2023-04-22T04:46:00.875Z,11.21
2023-04-22T04:49:26.066Z,11.28
2023-04-22T04:52:52.677Z,11.35
2023-04-22T04:56:16.551Z,11.42
2023-04-22T04:59:42.066Z,11.5
2023-04-22T05:03:07.095Z,11.58
2023-04-22T05:06:32.202Z,11.63
2023-04-22T05:09:57.436Z,11.68
2023-04-22T05:13:22.677Z,11.74
2023-04-22T05:16:47.945Z,11.8
2023-04-22T05:20:13.151Z,11.87
2023-04-22T05:23:38.335Z,11.93
2023-04-22T05:27:03.533Z,12.01
2023-04-22T05:30:28.727Z,12.07
2023-04-22T05:33:53.979Z,12.1
2023-04-22T05:37:19.273Z,12.16
2023-04-22T05:40:44.439Z,12.22
2023-04-22T05:44:09.662Z,12.32
2023-04-22T05:47:34.896Z,12.4
2023-04-22T05:51:00.110Z,12.5
2023-04-22T05:54:25.338Z,12.58
2023-04-22T05:57:50.918Z,12.67
2023-04-22T06:01:16.414Z,12.77
2023-04-22T06:04:41.873Z,12.88
2023-04-22T06:08:06.840Z,13.04
2023-04-22T06:11:32.105Z,13.2
2023-04-22T06:14:57.276Z,13.38
2023-04-22T06:18:22.515Z,13.56
2023-04-22T06:21:47.752Z,13.73
2023-04-22T06:25:12.951Z,13.88
2023-04-22T06:28:38.241Z,14.05
2023-04-22T06:32:03.425Z,14.22
2023-04-22T06:35:28.632Z,14.39
2023-04-22T06:38:53.820Z,14.55
2023-04-22T06:42:19.032Z,14.7
2023-04-22T06:45:44.264Z,14.82
2023-04-22T06:49:09.451Z,14.88
2023-04-22T06:52:34.844Z,14.91
2023-04-22T06:56:00.087Z,14.93
2023-04-22T06:59:25.929Z,14.94
2023-04-22T07:02:51.228Z,15.03
2023-04-22T07:06:16.356Z,15.1
2023-04-22T07:09:41.882Z,15.18
2023-04-22T07:13:06.773Z,15.25
2023-04-22T07:16:32.023Z,15.31
2023-04-22T07:19:57.222Z,15.42
2023-04-22T07:23:22.413Z,15.55
2023-04-22T07:26:47.688Z,15.69
2023-04-22T07:30:12.866Z,15.78
2023-04-22T07:33:38.070Z,15.89
2023-04-22T07:37:03.301Z,15.98
2023-04-22T07:40:28.489Z,16.059999
2023-04-22T07:43:53.702Z,16.139999
2023-04-22T07:47:18.925Z,16.23
2023-04-22T07:50:44.210Z,16.34
2023-04-22T07:54:09.423Z,16.42
2023-04-22T07:57:34.606Z,16.52
2023-04-22T08:00:59.924Z,16.66
2023-04-22T08:04:25.235Z,16.74
2023-04-22T08:07:50.244Z,16.85
2023-04-22T08:11:15.492Z,16.969999
2023-04-22T08:14:40.687Z,17.09
2023-04-22T08:18:05.953Z,17.27
2023-04-22T08:21:31.098Z,17.360001
2023-04-22T08:24:56.344Z,17.389999
2023-04-22T08:28:21.605Z,17.49
2023-04-22T08:31:46.782Z,17.59
2023-04-22T08:35:12.027Z,17.690001
2023-04-22T08:38:37.221Z,17.77
2023-04-22T08:42:02.430Z,17.889999
2023-04-22T08:45:27.670Z,18.01
2023-04-22T08:48:52.874Z,18.15
2023-04-22T08:52:18.106Z,18.27
2023-04-22T08:55:43.344Z,18.370001
2023-04-22T08:59:10.000Z,18.459999
2023-04-22T09:02:35.279Z,18.57
2023-04-22T09:06:00.447Z,18.629999
2023-04-22T09:09:25.655Z,18.719999
2023-04-22T09:12:50.879Z,18.860001
2023-04-22T09:16:16.110Z,19
2023-04-22T09:19:41.505Z,19.16
2023-04-22T09:23:06.532Z,19.280001
2023-04-22T09:26:31.779Z,19.450001
2023-04-22T09:29:57.033Z,19.610001
2023-04-22T09:33:22.311Z,19.690001
2023-04-22T09:36:47.581Z,19.799999
2023-04-22T09:40:12.782Z,19.959999
2023-04-22T09:43:38.132Z,20.18
2023-04-22T09:47:03.481Z,20.459999
2023-04-22T09:50:28.895Z,20.73
2023-04-22T09:53:54.397Z,20.950001
2023-04-22T09:57:19.692Z,21.139999
2023-04-22T10:00:45.147Z,21.18
2023-04-22T10:04:10.540Z,21.200001
2023-04-22T10:07:35.897Z,21.24
2023-04-22T10:11:01.269Z,21.26
2023-04-22T10:14:26.631Z,21.35
2023-04-22T10:17:51.998Z,21.389999
2023-04-22T10:21:17.389Z,21.459999
2023-04-22T10:24:42.773Z,21.6
2023-04-22T10:28:08.140Z,21.77
2023-04-22T10:31:33.479Z,21.93
2023-04-22T10:34:58.902Z,22.09
2023-04-22T10:38:24.192Z,22.23
2023-04-22T10:41:49.586Z,22.34
2023-04-22T10:45:14.986Z,22.42
2023-04-22T10:48:40.403Z,22.4
2023-04-22T10:52:05.783Z,22.389999
2023-04-22T10:55:31.154Z,22.4
2023-04-22T10:58:56.552Z,22.389999
2023-04-22T11:02:22.021Z,22.290001
2023-04-22T11:05:47.342Z,22.23
2023-04-22T11:09:12.706Z,22.120001
2023-04-22T11:12:38.116Z,22.030001
2023-04-22T11:16:03.466Z,22
2023-04-22T11:19:29.310Z,22
2023-04-22T11:22:54.668Z,22.07
2023-04-22T11:26:20.083Z,22.07
2023-04-22T11:29:45.414Z,22.049999
2023-04-22T11:33:10.773Z,22.09
2023-04-22T11:36:36.162Z,22.139999
2023-04-22T11:40:21.277Z,22.299999
2023-04-22T11:43:26.755Z,22.389999
2023-04-22T11:46:52.074Z,22.48
2023-04-22T11:50:17.442Z,22.59
2023-04-22T11:53:42.780Z,22.68
2023-04-22T11:57:08.089Z,22.719999
2023-04-22T12:00:33.472Z,22.719999
2023-04-22T12:03:58.952Z,22.68
2023-04-22T12:07:24.291Z,22.66
2023-04-22T12:10:49.811Z,22.6
2023-04-22T12:14:15.297Z,22.530001
2023-04-22T12:17:40.798Z,22.469999
2023-04-22T12:21:06.049Z,22.43
2023-04-22T12:24:31.317Z,22.379999
2023-04-22T12:27:56.669Z,22.370001
2023-04-22T12:31:22.136Z,22.370001
2023-04-22T12:34:47.240Z,22.360001
2023-04-22T12:38:12.587Z,22.33
2023-04-22T12:41:37.987Z,22.280001
2023-04-22T12:45:03.427Z,22.190001
2023-04-22T12:48:28.722Z,22.15
2023-04-22T12:51:54.107Z,22.07
2023-04-22T12:55:19.524Z,22
2023-04-22T12:58:44.896Z,21.959999
2023-04-22T13:02:10.314Z,21.92
2023-04-22T13:05:35.669Z,21.870001
2023-04-22T13:09:01.023Z,21.91
2023-04-22T13:12:26.388Z,21.959999
2023-04-22T13:15:51.849Z,21.969999
2023-04-22T13:19:17.277Z,21.950001
2023-04-22T13:22:42.756Z,21.92
2023-04-22T13:26:08.271Z,21.879999
2023-04-22T13:29:33.729Z,21.870001
2023-04-22T13:32:59.192Z,21.860001
2023-04-22T13:36:24.536Z,21.85
2023-04-22T13:39:49.849Z,21.870001
2023-04-22T13:43:15.214Z,21.83
2023-04-22T13:46:40.570Z,21.799999
2023-04-22T13:50:05.980Z,21.780001
2023-04-22T13:53:32.981Z,21.790001
2023-04-22T13:56:56.722Z,21.84
2023-04-22T14:00:22.083Z,21.860001
2023-04-22T14:03:47.405Z,21.860001
2023-04-22T14:07:12.752Z,21.83
2023-04-22T14:10:38.124Z,21.870001
2023-04-22T14:14:03.424Z,21.889999
2023-04-22T14:17:28.778Z,21.9
2023-04-22T14:20:54.106Z,21.92
2023-04-22T14:24:19.475Z,21.940001
2023-04-22T14:27:44.850Z,21.959999
2023-04-22T14:31:10.178Z,22
2023-04-22T14:34:35.554Z,22.02
2023-04-22T14:38:00.926Z,22.040001
2023-04-22T14:41:26.366Z,22.040001
2023-04-22T14:44:51.745Z,22.049999
2023-04-22T14:48:17.018Z,22.049999
2023-04-22T14:51:42.493Z,22.01
2023-04-22T14:55:15.852Z,21.99
2023-04-22T14:58:33.419Z,21.940001
2023-04-22T15:01:58.905Z,21.91
2023-04-22T15:38:19.991Z,18.99
2023-04-22T15:41:45.341Z,19.879999
2023-04-22T15:45:10.715Z,20.07
2023-04-22T15:48:36.041Z,20.25
2023-04-22T15:52:02.298Z,20.42
2023-04-22T15:56:10.314Z,20.58
2023-04-22T15:59:35.609Z,20.73
2023-04-22T16:03:01.168Z,20.84
2023-04-22T16:06:26.368Z,20.91
2023-04-22T16:09:51.719Z,20.959999
2023-04-22T16:13:17.069Z,20.99
2023-04-22T16:16:42.378Z,20.99
2023-04-22T16:20:07.689Z,21.01
2023-04-22T16:23:32.993Z,21.02
2023-04-22T16:26:58.299Z,21
2023-04-22T16:30:23.648Z,20.969999
2023-04-22T16:33:48.915Z,20.940001
2023-04-22T16:37:14.307Z,20.889999
2023-04-22T16:40:39.636Z,20.85
2023-04-22T16:44:04.943Z,20.790001
2023-04-22T16:47:30.298Z,20.73
2023-04-22T16:50:55.572Z,20.65
2023-04-22T16:54:20.901Z,20.6
2023-04-22T16:57:46.222Z,20.530001
2023-04-22T17:01:11.567Z,20.459999
2023-04-22T17:04:37.020Z,20.41
2023-04-22T17:08:02.248Z,20.35
2023-04-22T17:11:27.585Z,20.280001
2023-04-22T17:14:52.892Z,20.200001
2023-04-22T17:18:18.301Z,20.139999
2023-04-22T17:21:43.660Z,20.059999
2023-04-22T17:25:09.032Z,19.98
2023-04-22T17:28:34.361Z,19.9
2023-04-22T17:31:59.715Z,19.83
2023-04-22T17:35:25.128Z,19.75
2023-04-22T17:38:50.491Z,19.67
2023-04-22T17:42:16.309Z,19.6
2023-04-22T17:45:41.278Z,19.52
2023-04-22T17:49:06.595Z,19.42
2023-04-22T17:52:32.006Z,19.34
2023-04-22T17:55:57.437Z,19.27
2023-04-22T17:59:22.746Z,19.200001
2023-04-22T18:02:48.135Z,19.120001
2023-04-22T18:06:13.385Z,19.02
2023-04-22T18:09:38.944Z,18.969999
2023-04-22T18:13:03.934Z,18.940001
2023-04-22T18:16:29.304Z,18.92
2023-04-22T18:20:00.048Z,18.91
2023-04-22T18:23:19.786Z,18.870001
2023-04-22T18:26:45.652Z,18.83
2023-04-22T18:30:11.040Z,18.790001
2023-04-22T18:33:36.373Z,18.73
2023-04-22T18:37:01.714Z,18.66
2023-04-22T18:40:27.116Z,18.559999
2023-04-22T18:43:52.534Z,18.51
2023-04-22T18:47:17.959Z,18.459999
2023-04-22T18:50:43.301Z,18.440001
2023-04-22T18:54:08.728Z,18.41
2023-04-22T18:57:34.074Z,18.4
2023-04-22T19:00:59.510Z,18.379999
2023-04-22T19:04:24.914Z,18.360001
2023-04-22T19:07:50.193Z,18.370001
2023-04-22T19:11:15.555Z,18.360001
2023-04-22T19:14:41.157Z,18.34
2023-04-22T19:18:06.256Z,18.33
2023-04-22T19:21:31.798Z,18.33
2023-04-22T19:24:57.477Z,18.309999
2023-04-22T19:28:23.289Z,18.299999
2023-04-22T19:31:49.073Z,18.299999
2023-04-22T19:35:14.928Z,18.27
2023-04-22T19:38:40.701Z,18.27
2023-04-22T19:42:06.392Z,18.24
2023-04-22T19:45:32.167Z,18.219999
2023-04-22T19:48:57.857Z,18.200001
2023-04-22T19:52:23.517Z,18.190001
2023-04-22T19:55:49.433Z,18.190001
2023-04-22T19:59:15.101Z,18.190001
2023-04-22T20:02:40.987Z,18.18
2023-04-22T20:06:06.393Z,18.17
2023-04-22T20:09:32.401Z,18.17
2023-04-22T20:12:57.824Z,18.15
2023-04-22T20:16:23.292Z,18.120001
2023-04-22T20:19:48.717Z,18.09
2023-04-22T20:23:14.254Z,18.08
2023-04-22T20:26:39.708Z,18.059999
2023-04-22T20:30:05.155Z,18.030001
2023-04-22T20:33:30.510Z,18.02
2023-04-22T20:36:55.964Z,18.01
2023-04-22T20:40:22.665Z,17.98
2023-04-22T20:43:46.840Z,17.93
2023-04-22T20:47:12.278Z,17.879999
2023-04-22T20:50:37.658Z,17.85
2023-04-22T20:54:03.233Z,17.83
2023-04-22T20:57:28.497Z,17.82
2023-04-22T21:00:53.912Z,17.82
2023-04-22T21:04:19.457Z,17.82
2023-04-22T21:07:44.722Z,17.82
2023-04-22T21:11:10.138Z,17.809999
2023-04-22T21:14:35.579Z,17.790001
2023-04-22T21:18:01.518Z,17.790001
2023-04-22T21:21:33.462Z,17.780001
2023-04-22T21:25:01.674Z,17.780001
2023-04-22T21:28:27.099Z,17.780001
2023-04-22T21:32:01.424Z,17.77
2023-04-22T21:35:17.980Z,17.75
2023-04-22T21:38:43.423Z,17.74
2023-04-22T21:42:09.111Z,17.73
2023-04-22T21:45:34.256Z,17.709999
2023-04-22T21:48:59.718Z,17.690001
2023-04-22T21:52:25.121Z,17.66
2023-04-22T21:55:50.594Z,17.620001
2023-04-22T21:59:16.031Z,17.610001
2023-04-22T22:02:41.479Z,17.620001
2023-04-22T22:06:06.856Z,17.6
2023-04-22T22:09:32.264Z,17.58
2023-04-22T22:12:57.759Z,17.549999
2023-04-22T22:16:23.357Z,17.52
2023-04-22T22:19:48.626Z,17.459999
2023-04-22T22:23:14.069Z,17.42
2023-04-22T22:26:40.246Z,17.379999
2023-04-22T22:30:05.690Z,17.34
2023-04-22T22:33:31.171Z,17.299999
2023-04-22T22:36:56.543Z,17.23
2023-04-22T22:40:21.996Z,17.16
2023-04-22T22:43:47.478Z,17.129999
2023-04-22T22:47:12.936Z,17.110001
2023-04-22T22:50:38.308Z,17.07
2023-04-22T22:54:03.758Z,17.059999
2023-04-22T22:57:29.237Z,17.040001
2023-04-22T23:00:54.692Z,17.030001
2023-04-22T23:04:20.154Z,17.02
2023-04-22T23:07:45.556Z,17.030001
2023-04-22T23:11:10.984Z,17.02
2023-04-22T23:14:36.404Z,17.01
2023-04-22T23:18:01.768Z,17.02
2023-04-22T23:21:27.081Z,17.02
2023-04-22T23:24:52.373Z,17.01
2023-04-22T23:28:17.627Z,17.01
2023-04-22T23:31:42.869Z,16.98
2023-04-22T23:35:08.156Z,16.959999
2023-04-22T23:38:33.453Z,16.93
2023-04-22T23:41:58.690Z,16.879999
2023-04-22T23:45:23.936Z,16.84
2023-04-22T23:48:49.224Z,16.809999
2023-04-22T23:52:14.524Z,16.780001
2023-04-22T23:55:39.820Z,16.75
2023-04-22T23:59:05.047Z,16.74
